createdAt,value
2022-12-03T00:02:13.376Z,6.55
2022-12-03T00:04:40.478Z,6.75
2022-12-03T00:07:07.228Z,8.75
2022-12-03T00:09:33.916Z,8.73
2022-12-03T00:12:00.612Z,9.23
2022-12-03T00:14:27.581Z,9.13
2022-12-03T00:16:54.401Z,8.20
2022-12-03T00:19:21.148Z,8.48
2022-12-03T00:21:47.911Z,7.87
2022-12-03T00:24:14.594Z,8.43
2022-12-03T00:26:41.487Z,9.40
2022-12-03T00:29:08.352Z,9.45
2022-12-03T00:31:35.216Z,7.63
2022-12-03T00:34:02.070Z,6.80
2022-12-03T00:36:28.798Z,7.40
2022-12-03T00:38:55.557Z,7.75
2022-12-03T00:41:22.263Z,8.77
2022-12-03T00:43:48.945Z,9.45
2022-12-03T00:46:20.948Z,8.33
2022-12-03T00:48:48.181Z,9.23
2022-12-03T00:51:14.996Z,8.05
2022-12-03T00:53:41.665Z,8.30
2022-12-03T00:56:08.933Z,7.88
2022-12-03T00:58:35.928Z,7.37
2022-12-03T01:01:02.649Z,6.60
2022-12-03T01:03:29.358Z,8.23
2022-12-03T01:05:56.213Z,7.05
2022-12-03T01:08:22.876Z,8.55
2022-12-03T01:10:49.620Z,9.23
2022-12-03T01:13:16.396Z,6.90
2022-12-03T01:15:43.325Z,7.15
2022-12-03T01:18:10.131Z,8.57
2022-12-03T01:20:38.484Z,7.75
2022-12-03T01:23:05.574Z,8.10
2022-12-03T01:25:32.375Z,7.45
2022-12-03T01:27:59.148Z,6.40
2022-12-03T01:30:25.909Z,7.90
2022-12-03T01:32:52.778Z,6.95
2022-12-03T01:35:19.643Z,7.50
2022-12-03T01:37:46.339Z,6.15
2022-12-03T01:40:19.787Z,8.43
2022-12-03T01:42:46.570Z,7.50
2022-12-03T01:45:22.455Z,8.00
2022-12-03T01:47:49.357Z,8.67
2022-12-03T01:50:23.000Z,6.47
2022-12-03T01:52:50.000Z,6.35
2022-12-03T01:55:20.360Z,7.03
2022-12-03T01:57:53.741Z,6.38
2022-12-03T02:00:23.400Z,8.60
2022-12-03T02:02:53.555Z,6.55
2022-12-03T02:05:26.479Z,8.95
2022-12-03T02:07:54.099Z,9.18
2022-12-03T02:10:28.124Z,8.10
2022-12-03T02:13:01.135Z,6.93
2022-12-03T02:15:27.929Z,6.30
2022-12-03T02:17:55.573Z,7.95
2022-12-03T02:20:22.619Z,6.15
2022-12-03T02:23:10.880Z,8.15
2022-12-03T02:25:38.586Z,6.80
2022-12-03T02:28:07.904Z,7.82
2022-12-03T02:30:49.717Z,7.22
2022-12-03T02:33:16.478Z,7.55
2022-12-03T02:35:43.265Z,7.65
2022-12-03T02:38:12.837Z,8.17
2022-12-03T02:40:39.937Z,7.32
2022-12-03T02:43:06.725Z,8.57
2022-12-03T02:45:43.301Z,7.97
2022-12-03T02:48:19.551Z,9.35
2022-12-03T02:50:53.594Z,8.60
2022-12-03T02:53:27.674Z,8.32
2022-12-03T02:55:57.197Z,8.13
2022-12-03T02:58:25.785Z,8.27
2022-12-03T03:00:54.231Z,8.35
2022-12-03T03:03:22.180Z,8.23
2022-12-03T03:05:49.799Z,7.53
2022-12-03T03:08:18.028Z,9.18
2022-12-03T03:10:46.569Z,9.27
2022-12-03T03:13:17.404Z,8.63
2022-12-03T03:15:44.615Z,9.43
2022-12-03T03:18:13.052Z,8.82
2022-12-03T03:20:41.072Z,8.85
2022-12-03T03:23:19.492Z,9.20
2022-12-03T03:25:56.901Z,8.93
2022-12-03T03:28:24.538Z,8.93
2022-12-03T03:30:51.618Z,9.23
2022-12-03T03:33:18.452Z,7.38
2022-12-03T03:35:48.177Z,9.20
2022-12-03T03:38:19.277Z,9.43
2022-12-03T03:40:48.565Z,7.37
2022-12-03T03:43:15.584Z,8.85
2022-12-03T03:45:43.668Z,7.95
2022-12-03T03:48:11.380Z,8.75
2022-12-03T03:50:38.316Z,8.38
2022-12-03T03:53:05.600Z,8.63
2022-12-03T03:55:32.419Z,7.82
2022-12-03T03:57:59.244Z,8.63
2022-12-03T04:00:26.242Z,9.23
2022-12-03T04:02:54.324Z,7.70
2022-12-03T04:05:23.232Z,8.40
2022-12-03T04:07:50.356Z,8.25
2022-12-03T04:10:35.925Z,8.85
2022-12-03T04:13:03.060Z,8.60
2022-12-03T04:15:30.211Z,9.40
2022-12-03T04:18:16.032Z,7.93
2022-12-03T04:20:43.083Z,8.80
2022-12-03T04:23:09.979Z,9.30
2022-12-03T04:25:55.269Z,8.57
2022-12-03T04:28:40.851Z,8.82
2022-12-03T04:31:26.209Z,8.00
2022-12-03T04:34:11.805Z,8.70
2022-12-03T04:36:38.909Z,8.13
2022-12-03T04:39:07.676Z,9.15
2022-12-03T04:41:34.337Z,9.40
2022-12-03T04:44:24.014Z,8.60
2022-12-03T04:46:50.785Z,10.13
2022-12-03T04:49:17.462Z,8.45
2022-12-03T04:51:44.198Z,8.77
2022-12-03T04:54:10.944Z,9.60
2022-12-03T04:56:37.608Z,9.57
2022-12-03T04:59:04.325Z,10.30
2022-12-03T05:01:31.085Z,9.68
2022-12-03T05:03:57.841Z,10.55
2022-12-03T05:06:24.507Z,9.60
2022-12-03T05:08:51.239Z,9.23
2022-12-03T05:11:17.895Z,9.77
2022-12-03T05:13:44.618Z,9.18
2022-12-03T05:16:11.304Z,9.13
2022-12-03T05:18:38.108Z,9.10
2022-12-03T05:21:05.154Z,9.17
2022-12-03T05:23:31.839Z,9.20
2022-12-03T05:25:58.597Z,9.82
2022-12-03T05:28:25.447Z,8.88
2022-12-03T05:30:52.424Z,10.10
2022-12-03T05:33:20.392Z,9.97
2022-12-03T05:35:47.604Z,9.35
2022-12-03T05:38:14.531Z,9.95
2022-12-03T05:40:41.239Z,9.73
2022-12-03T05:43:08.021Z,9.60
2022-12-03T05:45:36.227Z,10.03
2022-12-03T05:48:04.572Z,10.45
2022-12-03T05:50:33.354Z,9.98
2022-12-03T05:53:00.361Z,9.57
2022-12-03T05:55:28.007Z,8.98
2022-12-03T05:57:55.326Z,9.63
2022-12-03T06:00:28.420Z,8.27
2022-12-03T06:02:55.569Z,10.25
2022-12-03T06:05:23.235Z,10.02
2022-12-03T06:07:51.518Z,8.60
2022-12-03T06:10:21.848Z,8.73
2022-12-03T06:12:48.628Z,5.68
2022-12-03T06:15:15.804Z,10.32
2022-12-03T06:17:42.821Z,7.47
2022-12-03T06:20:14.844Z,9.30
2022-12-03T06:22:41.961Z,10.50
2022-12-03T06:25:09.343Z,9.38
2022-12-03T06:27:36.425Z,8.98
2022-12-03T06:30:04.104Z,9.35
2022-12-03T06:32:30.893Z,8.50
2022-12-03T06:34:57.589Z,9.27
2022-12-03T06:37:24.324Z,9.85
2022-12-03T06:39:51.057Z,10.45
2022-12-03T06:42:18.028Z,10.30
2022-12-03T06:44:44.760Z,9.57
2022-12-03T06:47:11.501Z,10.77
2022-12-03T06:49:38.289Z,10.05
2022-12-03T06:52:05.164Z,11.20
2022-12-03T06:54:31.893Z,11.02
2022-12-03T06:56:58.696Z,11.23
2022-12-03T06:59:25.472Z,11.67
2022-12-03T07:01:52.256Z,11.82
2022-12-03T07:04:19.114Z,11.30
2022-12-03T07:06:45.791Z,11.88
2022-12-03T07:09:12.548Z,11.60
2022-12-03T07:11:41.990Z,12.30
2022-12-03T07:14:11.297Z,11.70
2022-12-03T07:16:39.031Z,12.05
2022-12-03T07:19:06.898Z,11.68
2022-12-03T07:21:33.871Z,12.32
2022-12-03T07:24:00.741Z,11.60
2022-12-03T07:26:27.578Z,11.88
2022-12-03T07:28:54.359Z,11.23
2022-12-03T07:31:21.080Z,10.70
2022-12-03T07:33:47.884Z,11.25
2022-12-03T07:36:14.614Z,10.50
2022-12-03T07:38:41.348Z,9.90
2022-12-03T07:41:08.108Z,10.93
2022-12-03T07:43:34.876Z,10.82
2022-12-03T07:46:01.696Z,9.32
2022-12-03T07:48:28.428Z,10.90
2022-12-03T07:50:55.183Z,10.38
2022-12-03T07:53:22.212Z,11.48
2022-12-03T07:55:48.940Z,10.20
2022-12-03T07:58:15.656Z,10.50
2022-12-03T08:00:42.474Z,11.27
2022-12-03T08:03:09.200Z,11.02
2022-12-03T08:05:35.976Z,11.75
2022-12-03T08:08:02.834Z,11.77
2022-12-03T08:10:29.559Z,10.80
2022-12-03T08:12:59.541Z,10.90
2022-12-03T08:15:33.639Z,11.77
2022-12-03T08:18:12.329Z,11.80
2022-12-03T08:20:41.070Z,11.32
2022-12-03T08:23:13.743Z,11.48
2022-12-03T08:25:40.517Z,11.63
2022-12-03T08:28:21.796Z,10.57
2022-12-03T08:31:11.986Z,10.73
2022-12-03T08:33:40.064Z,10.60
2022-12-03T08:36:14.620Z,10.45
2022-12-03T08:38:42.919Z,10.33
2022-12-03T08:41:15.505Z,10.65
2022-12-03T08:43:43.873Z,10.18
2022-12-03T08:46:19.450Z,9.68
2022-12-03T08:48:48.942Z,10.95
2022-12-03T08:51:25.276Z,10.53
2022-12-03T08:54:01.774Z,10.65
2022-12-03T08:56:33.624Z,10.93
2022-12-03T08:59:18.859Z,11.68
2022-12-03T09:01:47.201Z,11.57
2022-12-03T09:04:30.926Z,11.10
2022-12-03T09:06:59.692Z,10.93
2022-12-03T09:09:26.916Z,11.77
2022-12-03T09:11:54.698Z,11.93
2022-12-03T09:14:22.789Z,11.82
2022-12-03T09:16:52.294Z,11.13
2022-12-03T09:19:19.125Z,11.30
2022-12-03T09:21:45.813Z,11.32
2022-12-03T09:24:12.818Z,11.48
2022-12-03T09:26:39.592Z,12.15
2022-12-03T09:29:11.719Z,11.87
2022-12-03T09:31:39.332Z,11.43
2022-12-03T09:34:07.211Z,12.25
2022-12-03T09:36:34.180Z,12.13
2022-12-03T09:39:00.914Z,12.00
2022-12-03T09:41:28.612Z,12.43
2022-12-03T09:44:05.304Z,11.57
2022-12-03T09:46:35.101Z,13.23
2022-12-03T09:49:03.095Z,13.00
2022-12-03T09:51:33.782Z,12.75
2022-12-03T09:54:02.957Z,12.40
2022-12-03T09:56:29.921Z,12.55
2022-12-03T09:58:56.705Z,12.60
2022-12-03T10:01:26.753Z,12.15
2022-12-03T10:03:56.084Z,11.55
2022-12-03T10:06:24.194Z,12.37
2022-12-03T10:08:54.577Z,12.77
2022-12-03T10:11:24.411Z,12.55
2022-12-03T10:13:51.804Z,12.90
2022-12-03T10:16:20.861Z,11.23
2022-12-03T10:18:54.354Z,11.53
2022-12-03T10:21:24.331Z,11.70
2022-12-03T10:24:16.924Z,12.15
2022-12-03T10:26:45.048Z,11.52
2022-12-03T10:29:34.269Z,12.55
2022-12-03T10:32:08.804Z,11.40
2022-12-03T10:34:41.515Z,11.98
2022-12-03T10:37:16.139Z,11.98
2022-12-03T10:40:08.186Z,13.65
2022-12-03T10:42:38.662Z,11.48
2022-12-03T10:45:16.186Z,12.70
2022-12-03T10:47:44.518Z,11.95
2022-12-03T10:50:19.568Z,12.43
2022-12-03T10:52:46.858Z,12.80
2022-12-03T10:55:14.893Z,11.50
2022-12-03T10:57:45.632Z,11.50
2022-12-03T11:00:20.555Z,11.88
2022-12-03T11:02:54.925Z,12.15
2022-12-03T11:05:26.932Z,10.20
2022-12-03T11:07:54.130Z,11.20
2022-12-03T11:10:21.423Z,10.27
2022-12-03T11:13:25.865Z,10.05
2022-12-03T11:15:53.319Z,9.60
2022-12-03T11:18:38.563Z,9.88
2022-12-03T11:21:07.088Z,9.63
2022-12-03T11:23:48.579Z,9.63
2022-12-03T11:26:18.906Z,8.63
2022-12-03T11:28:46.076Z,10.05
2022-12-03T11:31:39.322Z,9.38
2022-12-03T11:34:18.348Z,9.38
2022-12-03T11:37:10.122Z,10.13
2022-12-03T11:39:52.218Z,10.15
2022-12-03T11:42:28.406Z,10.27
2022-12-03T11:45:04.188Z,10.68
2022-12-03T11:47:38.199Z,11.25
2022-12-03T11:50:39.041Z,10.87
2022-12-03T11:53:17.181Z,10.90
2022-12-03T11:55:48.657Z,11.20
2022-12-03T11:58:20.051Z,11.80
2022-12-03T12:00:55.816Z,11.45
2022-12-03T12:03:33.083Z,11.03
2022-12-03T12:06:18.248Z,11.30
2022-12-03T12:08:51.201Z,11.70
2022-12-03T12:11:26.068Z,11.65
2022-12-03T12:14:00.412Z,11.43
2022-12-03T12:16:36.272Z,13.13
2022-12-03T12:19:32.400Z,11.70
2022-12-03T12:22:38.352Z,11.07
2022-12-03T12:25:29.896Z,11.38
2022-12-03T12:27:57.563Z,11.27
2022-12-03T12:30:24.339Z,12.10
2022-12-03T12:33:08.192Z,10.98
2022-12-03T12:35:36.723Z,11.75
2022-12-03T12:38:06.619Z,12.13
2022-12-03T12:40:36.777Z,10.88
2022-12-03T12:43:24.274Z,10.77
2022-12-03T12:45:54.845Z,10.57
2022-12-03T12:48:31.359Z,11.60
2022-12-03T12:51:11.495Z,11.68
2022-12-03T12:53:39.983Z,10.35
2022-12-03T12:56:21.625Z,10.70
2022-12-03T12:58:48.370Z,10.38
2022-12-03T13:01:30.292Z,10.80
2022-12-03T13:03:57.454Z,10.82
2022-12-03T13:06:28.190Z,9.70
2022-12-03T13:08:55.446Z,9.70
2022-12-03T13:11:25.200Z,9.07
2022-12-03T13:13:52.508Z,8.73
2022-12-03T13:16:21.387Z,8.77
2022-12-03T13:18:56.968Z,9.10
2022-12-03T13:21:44.603Z,8.00
2022-12-03T13:24:29.710Z,8.05
2022-12-03T13:26:56.973Z,7.97
2022-12-03T13:29:25.864Z,8.15
2022-12-03T13:31:58.470Z,7.60
2022-12-03T13:34:28.249Z,7.90
2022-12-03T13:36:58.595Z,7.43
2022-12-03T13:39:35.190Z,8.25
2022-12-03T13:42:41.537Z,8.27
2022-12-03T13:45:14.723Z,7.63
2022-12-03T13:47:58.809Z,6.57
2022-12-03T13:50:39.545Z,7.90
2022-12-03T13:53:26.798Z,7.72
2022-12-03T13:56:15.298Z,7.75
2022-12-03T13:58:42.012Z,8.40
2022-12-03T14:01:08.772Z,8.47
2022-12-03T14:03:35.815Z,8.52
2022-12-03T14:06:02.525Z,8.43
2022-12-03T14:08:29.201Z,8.27
2022-12-03T14:11:00.576Z,8.90
2022-12-03T14:13:27.881Z,8.73
2022-12-03T14:15:54.616Z,8.32
2022-12-03T14:18:21.512Z,9.00
2022-12-03T14:20:48.328Z,9.02
2022-12-03T14:23:15.586Z,9.73
2022-12-03T14:25:43.979Z,9.00
2022-12-03T14:28:11.051Z,11.77
2022-12-03T14:30:38.040Z,10.82
2022-12-03T14:33:04.784Z,10.15
2022-12-03T14:35:31.518Z,7.75
2022-12-03T14:37:58.183Z,10.07
2022-12-03T14:40:25.033Z,9.35
2022-12-03T14:42:52.025Z,9.43
2022-12-03T14:45:20.292Z,9.13
2022-12-03T14:47:46.956Z,10.25
2022-12-03T14:50:14.481Z,10.73
2022-12-03T14:52:41.854Z,10.02
2022-12-03T14:55:09.021Z,8.30
2022-12-03T14:57:35.793Z,9.05
2022-12-03T15:00:02.537Z,11.43
2022-12-03T15:02:30.281Z,10.70
2022-12-03T15:04:57.184Z,11.05
2022-12-03T15:07:23.869Z,9.15
2022-12-03T15:09:50.524Z,9.93
2022-12-03T15:12:17.403Z,11.38
2022-12-03T15:14:44.176Z,11.23
2022-12-03T15:17:10.908Z,12.30
2022-12-03T15:19:37.834Z,11.85
2022-12-03T15:22:04.582Z,11.75
2022-12-03T15:24:31.399Z,12.13
2022-12-03T15:26:58.175Z,11.70
2022-12-03T15:29:24.978Z,12.40
2022-12-03T15:31:51.793Z,10.90
2022-12-03T15:34:22.389Z,11.68
2022-12-03T15:36:49.752Z,10.88
2022-12-03T15:39:16.432Z,12.50
2022-12-03T15:41:43.153Z,11.57
2022-12-03T15:44:09.923Z,10.45
2022-12-03T15:46:36.707Z,12.18
2022-12-03T15:49:03.487Z,11.85
2022-12-03T15:51:30.305Z,12.40
2022-12-03T15:53:57.113Z,10.82
2022-12-03T15:56:24.086Z,9.10
2022-12-03T15:58:51.734Z,10.07
2022-12-03T16:01:18.661Z,11.20
2022-12-03T16:03:45.457Z,10.40
2022-12-03T16:06:12.776Z,9.88
2022-12-03T16:08:39.614Z,9.40
2022-12-03T16:11:06.426Z,11.75
2022-12-03T16:13:33.373Z,10.73
2022-12-03T16:16:00.230Z,11.47
2022-12-03T16:18:27.147Z,10.20
2022-12-03T16:20:53.859Z,8.95
2022-12-03T16:23:20.740Z,10.35
2022-12-03T16:25:47.530Z,8.82
2022-12-03T16:28:14.231Z,11.00
2022-12-03T16:30:41.314Z,10.27
2022-12-03T16:33:08.408Z,10.40
2022-12-03T16:35:35.163Z,9.27
2022-12-03T16:38:01.940Z,9.18
2022-12-03T16:40:28.897Z,9.50
2022-12-03T16:42:55.696Z,8.80
2022-12-03T16:45:33.287Z,9.73
2022-12-03T16:48:01.170Z,9.32
2022-12-03T16:50:30.297Z,9.63
2022-12-03T16:52:58.009Z,11.53
2022-12-03T16:55:25.067Z,10.07
2022-12-03T16:57:51.766Z,9.93
2022-12-03T17:00:21.623Z,10.32
2022-12-03T17:02:48.679Z,9.98
2022-12-03T17:05:15.489Z,10.00
2022-12-03T17:07:42.279Z,10.35
2022-12-03T17:10:09.492Z,10.57
2022-12-03T17:13:01.216Z,10.38
2022-12-03T17:15:22.916Z,10.40
2022-12-03T17:17:49.660Z,10.53
2022-12-03T17:20:17.959Z,11.50
2022-12-03T17:22:44.709Z,11.85
2022-12-03T17:25:12.047Z,10.93
2022-12-03T17:27:44.832Z,12.50
2022-12-03T17:30:13.022Z,12.17
2022-12-03T17:32:40.049Z,12.75
2022-12-03T17:35:07.571Z,12.60
2022-12-03T17:37:34.487Z,13.15
2022-12-03T17:40:01.491Z,12.57
2022-12-03T17:42:28.232Z,15.03
2022-12-03T17:44:54.913Z,11.65
2022-12-03T17:47:21.655Z,13.40
2022-12-03T17:49:48.396Z,11.77
2022-12-03T17:52:15.087Z,12.45
2022-12-03T17:55:08.321Z,11.03
2022-12-03T17:57:28.464Z,13.40
2022-12-03T17:59:55.417Z,12.93
2022-12-03T18:02:22.498Z,13.32
2022-12-03T18:04:49.276Z,12.85
2022-12-03T18:07:16.043Z,12.97
2022-12-03T18:09:42.740Z,12.85
2022-12-03T18:12:09.542Z,12.38
2022-12-03T18:14:36.286Z,11.10
2022-12-03T18:17:03.027Z,11.75
2022-12-03T18:19:29.733Z,11.20
2022-12-03T18:21:56.467Z,11.70
2022-12-03T18:24:23.394Z,12.07
2022-12-03T18:26:50.414Z,12.63
2022-12-03T18:29:17.173Z,12.93
2022-12-03T18:31:43.938Z,12.30
2022-12-03T18:34:10.654Z,12.43
2022-12-03T18:36:37.527Z,12.10
2022-12-03T18:39:06.106Z,13.18
2022-12-03T18:41:33.539Z,12.70
2022-12-03T18:44:04.348Z,12.27
2022-12-03T18:46:52.580Z,12.10
2022-12-03T18:49:17.831Z,10.98
2022-12-03T18:51:44.629Z,13.10
2022-12-03T18:54:13.432Z,12.25
2022-12-03T18:56:41.412Z,12.17
2022-12-03T18:59:08.801Z,12.93
2022-12-03T19:01:36.083Z,13.02
2022-12-03T19:04:03.030Z,12.45
2022-12-03T19:06:30.486Z,12.77
2022-12-03T19:08:57.621Z,12.50
2022-12-03T19:11:24.430Z,12.82
2022-12-03T19:13:51.844Z,12.48
2022-12-03T19:16:19.009Z,12.77
2022-12-03T19:18:45.996Z,12.35
2022-12-03T19:21:15.456Z,13.40
2022-12-03T19:23:54.442Z,12.18
2022-12-03T19:26:29.516Z,13.27
2022-12-03T19:28:56.243Z,12.90
2022-12-03T19:31:23.044Z,12.40
2022-12-03T19:33:50.731Z,13.30
2022-12-03T19:36:31.379Z,13.00
2022-12-03T19:38:59.518Z,13.05
2022-12-03T19:41:30.476Z,13.85
2022-12-03T19:43:58.096Z,14.00
2022-12-03T19:46:28.644Z,12.90
2022-12-03T19:48:55.693Z,13.63
2022-12-03T19:51:37.493Z,13.73
2022-12-03T19:54:06.779Z,13.07
2022-12-03T19:56:34.443Z,14.00
2022-12-03T19:59:01.752Z,14.40
2022-12-03T20:01:31.119Z,12.90
2022-12-03T20:03:59.874Z,13.18
2022-12-03T20:06:32.545Z,12.70
2022-12-03T20:09:05.415Z,12.43
2022-12-03T20:11:33.825Z,12.47
2022-12-03T20:14:03.372Z,12.70
2022-12-03T20:16:30.324Z,14.27
2022-12-03T20:19:00.001Z,14.45
2022-12-03T20:21:28.592Z,13.60
2022-12-03T20:23:55.385Z,11.53
2022-12-03T20:26:22.842Z,13.18
2022-12-03T20:28:50.114Z,13.48
2022-12-03T20:31:20.015Z,13.48
2022-12-03T20:33:49.683Z,12.73
2022-12-03T20:36:18.277Z,13.30
2022-12-03T20:38:45.435Z,13.38
2022-12-03T20:41:18.565Z,11.65
2022-12-03T20:43:45.796Z,13.20
2022-12-03T20:46:14.292Z,12.63
2022-12-03T20:48:43.447Z,12.83
2022-12-03T20:51:13.464Z,12.75
2022-12-03T20:53:40.920Z,13.93
2022-12-03T20:56:08.259Z,13.00
2022-12-03T20:58:35.351Z,12.75
2022-12-03T21:01:15.899Z,12.30
2022-12-03T21:03:43.692Z,12.77
2022-12-03T21:06:11.404Z,12.95
2022-12-03T21:08:42.758Z,13.10
2022-12-03T21:11:14.753Z,12.60
2022-12-03T21:13:43.374Z,10.47
2022-12-03T21:16:13.002Z,12.18
2022-12-03T21:18:40.335Z,12.45
2022-12-03T21:21:07.408Z,12.50
2022-12-03T21:23:35.286Z,12.95
2022-12-03T21:26:10.940Z,12.20
2022-12-03T21:28:39.733Z,12.52
2022-12-03T21:31:09.573Z,11.43
2022-12-03T21:33:36.869Z,12.98
2022-12-03T21:36:04.824Z,12.30
2022-12-03T21:38:32.728Z,13.40
2022-12-03T21:41:01.130Z,12.07
2022-12-03T21:43:28.332Z,12.82
2022-12-03T21:45:55.378Z,12.40
2022-12-03T21:48:22.568Z,12.40
2022-12-03T21:51:21.698Z,12.77
2022-12-03T21:53:48.485Z,11.85
2022-12-03T21:56:18.412Z,12.88
2022-12-03T21:58:45.643Z,12.90
2022-12-03T22:01:19.345Z,12.25
2022-12-03T22:03:46.317Z,12.03
2022-12-03T22:06:13.433Z,9.75
2022-12-03T22:08:40.645Z,12.63
2022-12-03T22:11:10.608Z,12.90
2022-12-03T22:13:38.976Z,12.30
2022-12-03T22:16:11.319Z,13.90
2022-12-03T22:18:38.605Z,12.07
2022-12-03T22:21:07.252Z,12.05
2022-12-03T22:23:34.565Z,12.57
2022-12-03T22:26:04.927Z,12.35
2022-12-03T22:28:32.266Z,11.47
2022-12-03T22:30:59.043Z,12.13
2022-12-03T22:33:25.980Z,12.88
2022-12-03T22:36:02.396Z,13.10
2022-12-03T22:38:30.009Z,13.02
2022-12-03T22:40:57.171Z,12.97
2022-12-03T22:43:24.080Z,13.10
2022-12-03T22:45:55.220Z,12.38
2022-12-03T22:48:23.349Z,13.02
2022-12-03T22:50:51.399Z,12.80
2022-12-03T22:53:18.740Z,13.13
2022-12-03T22:55:53.588Z,12.70
2022-12-03T22:58:20.282Z,12.55
2022-12-03T23:00:47.013Z,12.57
2022-12-03T23:03:13.796Z,12.55
2022-12-03T23:05:40.660Z,13.73
2022-12-03T23:08:12.399Z,13.52
2022-12-03T23:10:41.713Z,12.57
2022-12-03T23:13:09.660Z,12.52
2022-12-03T23:15:36.678Z,12.82
2022-12-03T23:18:03.757Z,12.63
2022-12-03T23:20:30.423Z,13.35
2022-12-03T23:22:57.076Z,12.50
2022-12-03T23:25:23.804Z,13.18
2022-12-03T23:27:50.541Z,12.30
2022-12-03T23:30:17.431Z,13.27
2022-12-03T23:32:44.417Z,12.50
2022-12-03T23:35:12.584Z,13.38
2022-12-03T23:37:42.512Z,13.00
2022-12-03T23:40:09.800Z,12.25
2022-12-03T23:42:36.466Z,13.03
2022-12-03T23:45:03.593Z,12.07
2022-12-03T23:47:30.365Z,12.35
2022-12-03T23:49:57.348Z,12.43
2022-12-03T23:52:24.573Z,12.77
2022-12-03T23:54:51.321Z,12.73
2022-12-03T23:57:18.435Z,12.55
2022-12-03T23:59:45.192Z,13.10
